Flight EZE13B

  • Submitted By: Dave Hardy
  • Departure Airport: Isle Of Man / Ronaldsway (EGNS)
  • Arrival Airport: Birmingham (EGBB)
  • Aircraft: JS41 (G-MAJA)
  • Flight Time: 0.39
  • Date Submitted: 05/24/2009
  • Status: Accepted
Flight Details
Gross Revenue:
(25 load / £ 0.00 per unit
£ 0.00
Fuel Cost:
(892 fuel used @ 0 / unit)
£ 0.00

Flight Details

  • VATAWARE Link: -

Additional Log Information:

View Log

[2009/05/24 17:57:00]
Flight IATA:EZE13B
Pilot Number:EZE0001
Company ICAO:EZE
Aircraft Type:JS41
PAX:25
Aircraft Registration:JS41
Departing Airport: EGNS
Destination Airport: EGBB
Online: VATSIM
Route:KELLY.L10.WAL
Flight Level:17000
17:57 Zero fuel Weight: 17981 Lbs, Fuel Weight: 4737 Lbs
17:57 VATSIM:EGNS 241720Z 23009KT CAVOK 13/08 Q1019 NOSIG
17:57 VATSIM:EGBB 241720Z 15007KT CAVOK 20/06 Q1019
17:59 Parking Brakes off
17:59 Com1 Freq=122.80
18:03 VR= 122 Knots
18:03 V2= 131 Knots
18:03 Take-off
18:03 Take off Weight: 22679 Lbs
18:03 Wind: 237 @ 009 Knots Heading: 256
18:03 POS N54 04 54 W004 38 09
18:03 N11 36 N12 36
18:03 Gear Up: 133 Knots
18:03 Flaps: at 133 Knots
18:05 Flaps: at 138 Knots
18:13 TOC
18:13 Fuel Weight: 4329 Lb
18:18 Wind:240@030 Knots Heading: 130 Ground Speed: 304 Knots Altitude 16988 ft
18:29 TOD
18:29 Fuel Weight: 3909 Lb
18:32 Flaps: at 167 Knots
18:33 Wind:221@007 Knots Heading: 150 Ground Speed: 166 Knots Altitude 5908 ft
18:34 Flaps: at 167 Knots
18:34 Gear Down: 168 Knots
18:34 Flaps: at 168 Knots
18:34 Flaps: at 168 Knots
18:34 Flaps: at 166 Knots
18:36 TouchDown:Rate -539 ft/min Speed: 96 Knots
18:36 VATSIM:EGBB 241820Z 19006KT 140V220 CAVOK 19/06 Q1019
18:36 Land
18:36 Wind:155@006 Knots
18:36 Heading: 141
18:36 Flight Duration: 00:33
18:36 Landing Weight: 21842 Lbs
18:36 POS N52 27 22 W001 45 03
18:38 Slew ON
18:38 Slew OFF
18:38 Parking brakes on
18:38 Block to Block Duration: 00:39
18:38 Final Fuel: 3844 Lbls
18:38 Spent Fuel: 892 Lbls
18:38 Flight Length: 139 NM
18:38 TOD Land Length: 24 NM
16:38 UTC Jump: added 1 Hour to Log

Route Map